createdAt,value
2022-11-22T00:00:45.355Z,149550.78
2022-11-22T00:03:11.447Z,149555.81
2022-11-22T00:05:37.376Z,149538.22
2022-11-22T00:08:03.879Z,149565.91
2022-11-22T00:10:29.742Z,149549.53
2022-11-22T00:12:55.526Z,149523.13
2022-11-22T00:15:21.298Z,149536.94
2022-11-22T00:17:47.121Z,149552.03
2022-11-22T00:20:13.532Z,149572.16
2022-11-22T00:22:44.248Z,149528.13
2022-11-22T00:25:10.709Z,149554.56
2022-11-22T00:27:36.476Z,149536.94
2022-11-22T00:30:03.117Z,149545.75
2022-11-22T00:32:28.901Z,149542.00
2022-11-22T00:34:54.669Z,149540.75
2022-11-22T00:37:20.798Z,149531.91
2022-11-22T00:39:46.549Z,149570.91
2022-11-22T00:42:12.379Z,149572.16
2022-11-22T00:44:38.175Z,149570.91
2022-11-22T00:47:04.013Z,149570.91
2022-11-22T00:49:30.011Z,149569.66
2022-11-22T00:51:55.856Z,149562.13
2022-11-22T00:54:21.784Z,149578.50
2022-11-22T00:56:47.565Z,149588.53
2022-11-22T00:59:13.360Z,149575.97
2022-11-22T01:01:39.263Z,149599.88
2022-11-22T01:04:05.084Z,149597.38
2022-11-22T01:06:30.896Z,149609.97
2022-11-22T01:08:56.764Z,149620.03
2022-11-22T01:11:22.506Z,149631.38
2022-11-22T01:13:48.500Z,149632.63
2022-11-22T01:16:16.105Z,149640.16
2022-11-22T01:18:42.134Z,149677.94
2022-11-22T01:21:08.253Z,149670.38
2022-11-22T01:23:34.865Z,149695.56
2022-11-22T01:26:01.475Z,149680.44
2022-11-22T01:28:27.266Z,149709.41
2022-11-22T01:30:53.568Z,149690.53
2022-11-22T01:33:20.124Z,149696.81
2022-11-22T01:35:46.230Z,149716.94
2022-11-22T01:38:12.474Z,149695.56
2022-11-22T01:40:38.486Z,149714.44
2022-11-22T01:43:15.419Z,149725.78
2022-11-22T01:45:44.455Z,149715.69
2022-11-22T01:48:17.420Z,149730.81
2022-11-22T01:50:48.560Z,149723.28
2022-11-22T01:53:19.814Z,149724.53
2022-11-22T01:55:47.278Z,149724.53
2022-11-22T01:58:14.740Z,149727.03
2022-11-22T02:00:42.936Z,149733.31
2022-11-22T02:03:13.123Z,149740.91
2022-11-22T02:05:39.286Z,149743.41
2022-11-22T02:08:31.862Z,149727.03
2022-11-22T02:11:00.769Z,149690.53
2022-11-22T02:13:26.972Z,149713.19
2022-11-22T02:15:53.853Z,149715.69
2022-11-22T02:18:19.605Z,149719.50
2022-11-22T02:20:45.694Z,149718.25
2022-11-22T02:23:30.924Z,149703.13
2022-11-22T02:25:59.159Z,149723.28
2022-11-22T02:28:28.021Z,149711.94
2022-11-22T02:30:54.120Z,149706.91
2022-11-22T02:33:20.505Z,149696.81
2022-11-22T02:35:46.731Z,149722.03
2022-11-22T02:38:20.579Z,149720.75
2022-11-22T02:41:09.070Z,149723.28
2022-11-22T02:43:45.287Z,149716.94
2022-11-22T02:46:16.010Z,149728.31
2022-11-22T02:48:43.074Z,149730.81
2022-11-22T02:51:09.675Z,149739.66
2022-11-22T02:53:35.444Z,149750.97
2022-11-22T02:56:01.336Z,149764.81
2022-11-22T02:58:27.167Z,149748.44
2022-11-22T03:00:53.035Z,149744.69
2022-11-22T03:03:18.857Z,149758.53
2022-11-22T03:05:44.636Z,149761.06
2022-11-22T03:08:10.394Z,149771.16
2022-11-22T03:10:36.211Z,149757.28
2022-11-22T03:13:01.997Z,149756.03
2022-11-22T03:15:27.863Z,149777.44
2022-11-22T03:17:58.730Z,149754.78
2022-11-22T03:20:24.659Z,149774.91
2022-11-22T03:22:50.480Z,149763.56
2022-11-22T03:25:16.325Z,149784.97
2022-11-22T03:27:42.489Z,149792.56
2022-11-22T03:30:09.182Z,149776.19
2022-11-22T03:32:35.167Z,149756.03
2022-11-22T03:35:01.785Z,149773.66
2022-11-22T03:37:28.079Z,149763.56
2022-11-22T03:39:53.846Z,149767.34
2022-11-22T03:42:21.967Z,149773.66
2022-11-22T03:44:48.155Z,149790.03
2022-11-22T03:47:13.947Z,149773.66
2022-11-22T03:49:39.769Z,149781.19
2022-11-22T03:52:05.778Z,149793.81
2022-11-22T03:54:31.546Z,149773.66
2022-11-22T03:56:57.349Z,149793.81
2022-11-22T03:59:23.385Z,149810.19
2022-11-22T04:01:49.379Z,149776.19
2022-11-22T04:04:15.154Z,149769.84
2022-11-22T04:06:41.401Z,149766.06
2022-11-22T04:09:07.342Z,149787.47
2022-11-22T04:11:33.264Z,149763.56
2022-11-22T04:14:17.694Z,149739.66
2022-11-22T04:16:43.495Z,149762.31
2022-11-22T04:19:09.410Z,149773.66
2022-11-22T04:21:35.278Z,149784.97
2022-11-22T04:24:28.300Z,149762.31
2022-11-22T04:26:54.619Z,149740.91
2022-11-22T04:29:21.117Z,149725.78
2022-11-22T04:32:06.629Z,149730.81
2022-11-22T04:34:33.095Z,149749.69
2022-11-22T04:36:59.165Z,149735.88
2022-11-22T04:39:25.418Z,149730.81
2022-11-22T04:42:12.468Z,149720.75
2022-11-22T04:44:41.275Z,149699.38
2022-11-22T04:47:12.452Z,149719.50
2022-11-22T04:49:38.559Z,149723.28
2022-11-22T04:52:23.445Z,149724.53
2022-11-22T04:54:49.459Z,149727.03
2022-11-22T04:57:15.351Z,149732.06
2022-11-22T04:59:41.120Z,149738.41
2022-11-22T05:02:06.969Z,149740.91
2022-11-22T05:04:32.910Z,149724.53
2022-11-22T05:06:58.666Z,149716.94
2022-11-22T05:09:24.469Z,149737.13
2022-11-22T05:11:50.675Z,149716.94
2022-11-22T05:14:16.444Z,149740.91
2022-11-22T05:16:42.170Z,149723.28
2022-11-22T05:19:07.971Z,149711.94
2022-11-22T05:21:35.117Z,149686.75
2022-11-22T05:24:01.923Z,149688.00
2022-11-22T05:26:32.229Z,149677.94
2022-11-22T05:29:02.064Z,149671.66
2022-11-22T05:31:27.996Z,149672.91
2022-11-22T05:33:55.993Z,149660.28
2022-11-22T05:36:22.751Z,149679.19
2022-11-22T05:38:49.205Z,149681.75
2022-11-22T05:41:16.166Z,149665.38
2022-11-22T05:43:42.303Z,149664.09
2022-11-22T05:46:09.711Z,149654.03
2022-11-22T05:48:37.088Z,149641.41
2022-11-22T05:51:07.036Z,149630.13
2022-11-22T05:53:34.051Z,149657.78
2022-11-22T05:56:07.495Z,149630.13
2022-11-22T05:58:34.199Z,149642.66
2022-11-22T06:01:08.425Z,149642.66
2022-11-22T06:03:35.107Z,149626.31
2022-11-22T06:06:01.288Z,149622.53
2022-11-22T06:08:31.271Z,149615.00
2022-11-22T06:11:07.501Z,149608.66
2022-11-22T06:13:37.962Z,149616.25
2022-11-22T06:16:05.452Z,149617.50
2022-11-22T06:18:31.730Z,149628.84
2022-11-22T06:21:02.969Z,149621.28
2022-11-22T06:23:29.395Z,149617.50
2022-11-22T06:26:22.452Z,149640.16
2022-11-22T06:28:48.890Z,149617.50
2022-11-22T06:31:20.608Z,149582.25
2022-11-22T06:33:46.987Z,149592.34
2022-11-22T06:36:18.210Z,149587.28
2022-11-22T06:38:45.312Z,149599.88
2022-11-22T06:41:16.604Z,149613.75
2022-11-22T06:43:48.313Z,149603.66
2022-11-22T06:46:19.777Z,149592.34
2022-11-22T06:48:46.289Z,149589.78
2022-11-22T06:51:13.825Z,149596.13
2022-11-22T06:53:47.461Z,149587.28
2022-11-22T06:56:14.659Z,149574.72
2022-11-22T06:58:41.033Z,149572.16
2022-11-22T07:01:07.963Z,149598.63
2022-11-22T07:03:35.201Z,149596.13
2022-11-22T07:06:01.227Z,149573.44
2022-11-22T07:08:27.265Z,149579.75
2022-11-22T07:10:53.188Z,149579.75
2022-11-22T07:13:19.717Z,149583.50
2022-11-22T07:15:59.281Z,149583.50
2022-11-22T07:18:26.469Z,149581.00
2022-11-22T07:20:52.549Z,149578.50
2022-11-22T07:23:19.156Z,149569.66
2022-11-22T07:25:46.144Z,149553.28
2022-11-22T07:28:13.091Z,149564.63
2022-11-22T07:30:43.808Z,149587.28
2022-11-22T07:33:09.780Z,149588.53
2022-11-22T07:35:36.043Z,149560.88
2022-11-22T07:38:02.862Z,149555.81
2022-11-22T07:40:29.035Z,149609.97
2022-11-22T07:42:58.410Z,149579.75
2022-11-22T07:45:24.958Z,149591.06
2022-11-22T07:47:50.721Z,149615.00
2022-11-22T07:50:16.672Z,149591.06
2022-11-22T07:52:42.430Z,149617.50
2022-11-22T07:55:13.664Z,149581.00
2022-11-22T07:57:39.892Z,149584.78
2022-11-22T08:00:06.208Z,149569.66
2022-11-22T08:02:32.044Z,149582.25
2022-11-22T08:04:57.817Z,149579.75
2022-11-22T08:07:23.661Z,149578.50
2022-11-22T08:09:49.484Z,149613.75
2022-11-22T08:12:15.382Z,149594.88
2022-11-22T08:14:41.120Z,149616.25
2022-11-22T08:17:06.844Z,149608.66
2022-11-22T08:19:35.063Z,149625.03
2022-11-22T08:22:00.905Z,149611.22
2022-11-22T08:24:27.368Z,149647.75
2022-11-22T08:26:53.177Z,149626.31
2022-11-22T08:29:18.948Z,149633.88
2022-11-22T08:31:44.776Z,149649.00
2022-11-22T08:34:10.485Z,149632.63
2022-11-22T08:36:36.248Z,149641.41
2022-11-22T08:39:02.240Z,149657.78
2022-11-22T08:41:28.024Z,149662.81
2022-11-22T08:43:54.258Z,149666.63
2022-11-22T08:46:20.162Z,149642.66
2022-11-22T08:48:46.109Z,149647.75
2022-11-22T08:51:13.795Z,149669.13
2022-11-22T08:53:41.403Z,149675.41
2022-11-22T08:56:10.180Z,149674.16
2022-11-22T08:58:36.406Z,149691.78
2022-11-22T09:01:15.953Z,149683.00
2022-11-22T09:03:43.140Z,149683.00
2022-11-22T09:09:30.086Z,149738.41
2022-11-22T09:11:46.216Z,149762.31
2022-11-22T09:14:12.504Z,149777.44
2022-11-22T09:16:38.277Z,149798.84
2022-11-22T09:19:04.136Z,149808.94
2022-11-22T09:21:29.975Z,149803.84
2022-11-22T09:23:55.744Z,149839.13
2022-11-22T09:26:23.758Z,149829.09
2022-11-22T09:28:50.208Z,149887.03
2022-11-22T09:31:21.087Z,150014.28
2022-11-22T09:33:48.753Z,150145.41
2022-11-22T09:36:20.952Z,150502.50
2022-11-22T09:38:46.903Z,150995.28
2022-11-22T09:41:15.552Z,151592.59
2022-11-22T09:43:59.757Z,151814.31
2022-11-22T09:46:25.512Z,151938.56
2022-11-22T09:49:20.284Z,151896.75
2022-11-22T09:51:53.295Z,152245.53
2022-11-22T09:54:26.227Z,152597.25
2022-11-22T09:56:55.860Z,152595.97
2022-11-22T09:59:28.124Z,152227.75
2022-11-22T10:02:17.503Z,151745.84
2022-11-22T10:04:52.927Z,151416.56
2022-11-22T10:07:24.950Z,151559.66
2022-11-22T10:10:12.397Z,151289.97
2022-11-22T10:12:45.317Z,151419.09
2022-11-22T10:15:32.621Z,151630.59
2022-11-22T10:18:25.019Z,151941.09
2022-11-22T10:20:51.908Z,152397.84
2022-11-22T10:23:21.424Z,152053.97
2022-11-22T10:25:57.006Z,151303.91
2022-11-22T10:28:34.152Z,150930.78
2022-11-22T10:31:38.842Z,151081.28
2022-11-22T10:34:28.936Z,150594.66
2022-11-22T10:37:13.579Z,150489.91
2022-11-22T10:39:42.304Z,150366.22
2022-11-22T10:42:43.448Z,150169.38
2022-11-22T10:45:33.760Z,150101.28
2022-11-22T10:48:05.279Z,150011.78
2022-11-22T10:50:50.969Z,149966.38
2022-11-22T10:53:36.017Z,149971.47
2022-11-22T10:56:34.485Z,149946.22
2022-11-22T10:59:18.151Z,149936.19
2022-11-22T11:02:08.704Z,149986.59
2022-11-22T11:04:39.255Z,149938.69
2022-11-22T11:07:12.690Z,149948.75
2022-11-22T11:12:44.510Z,149976.50
2022-11-22T11:15:20.592Z,150036.97
2022-11-22T11:17:52.734Z,150207.22
2022-11-22T11:20:47.651Z,150250.09
2022-11-22T11:23:15.787Z,150243.78
2022-11-22T11:25:44.190Z,150282.94
2022-11-22T11:28:25.377Z,150411.63
2022-11-22T11:30:53.970Z,150857.44
2022-11-22T11:33:25.168Z,151183.69
2022-11-22T11:35:54.526Z,151050.91
2022-11-22T11:38:28.456Z,150722.28
2022-11-22T11:40:54.192Z,150383.91
2022-11-22T11:43:22.385Z,150348.56
2022-11-22T11:45:48.662Z,150250.09
2022-11-22T11:48:26.642Z,150144.13
2022-11-22T11:51:06.746Z,150067.25
2022-11-22T11:53:33.533Z,150077.34
2022-11-22T11:56:41.596Z,150115.16
2022-11-22T11:59:35.258Z,150154.25
2022-11-22T12:02:12.410Z,150523.97
2022-11-22T12:04:53.877Z,150774.03
2022-11-22T12:07:27.918Z,151384.91
2022-11-22T12:09:55.304Z,151797.84
2022-11-22T12:12:44.708Z,151710.38
2022-11-22T12:15:48.744Z,151236.81
2022-11-22T12:18:29.701Z,151273.50
2022-11-22T12:21:17.131Z,150686.91
2022-11-22T12:24:19.894Z,150357.38
2022-11-22T12:26:47.346Z,150242.53
2022-11-22T12:29:14.914Z,150164.31
2022-11-22T12:32:16.069Z,150126.47
2022-11-22T12:34:59.969Z,150072.28
2022-11-22T12:37:53.004Z,150029.44
2022-11-22T12:40:26.297Z,149986.59
2022-11-22T12:43:00.044Z,149994.13
2022-11-22T12:45:33.245Z,149980.25
2022-11-22T12:48:05.780Z,149965.13
2022-11-22T12:50:43.575Z,149971.47
2022-11-22T12:53:14.087Z,150008.00
2022-11-22T12:55:48.599Z,149995.41
2022-11-22T12:58:19.047Z,149984.03
2022-11-22T13:01:06.415Z,150020.59
2022-11-22T13:03:43.580Z,150033.19
2022-11-22T13:06:10.825Z,150005.50
2022-11-22T13:08:52.846Z,149982.78
2022-11-22T13:11:30.283Z,149995.41
2022-11-22T13:14:02.776Z,149971.47
2022-11-22T13:16:28.640Z,149971.47
2022-11-22T13:18:57.955Z,150008.00
2022-11-22T13:21:33.516Z,150029.44
2022-11-22T13:24:05.221Z,150010.53
2022-11-22T13:26:58.600Z,149972.72
2022-11-22T13:29:27.615Z,149958.84
2022-11-22T13:32:04.521Z,149965.13
2022-11-22T13:34:32.344Z,149967.66
2022-11-22T13:37:25.143Z,149946.22
2022-11-22T13:39:51.245Z,149966.38
2022-11-22T13:42:25.878Z,149960.09
2022-11-22T13:45:11.884Z,149965.13
2022-11-22T13:47:43.044Z,149933.66
2022-11-22T13:50:40.853Z,149918.53
2022-11-22T13:53:18.687Z,149916.03
2022-11-22T13:55:46.167Z,149950.06
2022-11-22T13:58:37.958Z,149944.97
2022-11-22T14:01:03.857Z,149939.94
2022-11-22T14:03:35.975Z,149946.22
2022-11-22T14:06:19.579Z,149928.59
2022-11-22T14:08:46.554Z,149946.22
2022-11-22T14:12:06.731Z,149929.84
2022-11-22T14:15:03.236Z,149927.31
2022-11-22T14:17:42.236Z,149910.94
2022-11-22T14:20:38.923Z,149946.22
2022-11-22T14:23:41.438Z,149912.19
2022-11-22T14:26:22.523Z,149897.13
2022-11-22T14:29:15.672Z,149907.19
2022-11-22T14:31:42.802Z,149932.41
2022-11-22T14:34:19.938Z,149924.81
2022-11-22T14:37:14.789Z,149921.03
2022-11-22T14:39:43.575Z,149929.84
2022-11-22T14:42:37.214Z,149936.19
2022-11-22T14:45:11.776Z,149916.03
2022-11-22T14:47:52.382Z,149934.91
2022-11-22T14:50:36.384Z,149912.19
2022-11-22T14:53:20.578Z,149919.78
2022-11-22T14:55:48.414Z,149902.16
2022-11-22T14:58:22.392Z,149903.41
2022-11-22T15:01:11.329Z,149913.47
2022-11-22T15:09:11.062Z,149913.47
2022-11-22T15:09:14.915Z,149904.66
2022-11-22T15:10:34.406Z,149917.28
2022-11-22T15:13:32.952Z,149917.28
2022-11-22T15:58:45.925Z,149899.63
2022-11-22T16:01:18.387Z,149912.19
2022-11-22T16:03:50.159Z,149893.31
2022-11-22T16:06:18.640Z,149864.34
2022-11-22T16:08:55.045Z,149884.50
2022-11-22T16:11:31.432Z,149880.75
2022-11-22T16:13:57.929Z,149868.13
2022-11-22T16:16:33.413Z,149858.03
2022-11-22T16:19:20.954Z,149880.75
2022-11-22T16:21:59.802Z,149839.13
2022-11-22T16:24:30.796Z,149854.25
2022-11-22T16:26:59.592Z,149869.38
2022-11-22T16:29:31.604Z,149849.22
2022-11-22T16:32:09.474Z,149840.38
2022-11-22T16:34:35.366Z,149855.50
2022-11-22T16:37:01.402Z,149839.13
2022-11-22T16:39:27.323Z,149846.72
2022-11-22T16:41:53.179Z,149850.47
2022-11-22T16:44:20.610Z,149844.22
2022-11-22T16:46:49.221Z,149842.94
2022-11-22T16:49:20.546Z,149841.66
2022-11-22T16:51:50.329Z,149845.47
2022-11-22T16:54:20.140Z,149822.75
2022-11-22T16:56:46.660Z,149869.38
2022-11-22T16:59:12.915Z,149847.97
2022-11-22T17:01:42.860Z,149854.25
2022-11-22T17:04:25.450Z,149832.84
2022-11-22T17:06:51.647Z,149808.94
2022-11-22T17:09:17.588Z,149845.47
2022-11-22T17:11:43.935Z,149854.25
2022-11-22T17:14:17.412Z,149844.22
2022-11-22T17:16:45.067Z,149854.25
2022-11-22T17:21:56.723Z,149847.97
2022-11-22T17:24:23.175Z,149854.25
2022-11-22T17:26:48.975Z,149855.50
2022-11-22T17:29:42.912Z,149859.28
2022-11-22T17:32:00.510Z,149859.28
2022-11-22T17:34:26.363Z,149861.84
2022-11-22T17:36:52.198Z,149849.22
2022-11-22T17:39:18.067Z,149870.63
2022-11-22T17:41:48.186Z,149854.25
2022-11-22T17:44:16.034Z,149865.63
2022-11-22T17:46:43.448Z,149865.63
2022-11-22T17:49:15.509Z,149870.63
2022-11-22T17:51:42.342Z,149856.75
2022-11-22T17:54:08.156Z,149861.84
2022-11-22T17:56:35.481Z,149853.00
2022-11-22T17:59:01.488Z,149856.75
2022-11-22T18:01:27.323Z,149854.25
2022-11-22T18:03:53.181Z,149855.50
2022-11-22T18:06:22.580Z,149879.47
2022-11-22T18:08:48.663Z,149865.63
2022-11-22T18:11:15.737Z,149897.13
2022-11-22T18:13:42.238Z,149893.31
2022-11-22T18:16:14.725Z,149892.03
2022-11-22T18:18:56.327Z,149876.91
2022-11-22T18:21:26.070Z,149871.91
2022-11-22T18:23:52.228Z,149903.41
2022-11-22T18:31:53.911Z,149870.63
2022-11-22T18:34:21.464Z,149882.00
2022-11-22T18:37:04.177Z,149894.56
2022-11-22T18:39:33.656Z,149890.78
2022-11-22T18:42:00.000Z,149888.28
2022-11-22T18:44:26.723Z,149908.44
2022-11-22T18:46:52.623Z,149905.91
2022-11-22T18:49:18.429Z,149918.53
2022-11-22T18:51:44.317Z,149905.91
2022-11-22T18:54:10.375Z,149917.28
2022-11-22T18:56:39.131Z,149929.84
2022-11-22T18:59:06.304Z,149934.91
2022-11-22T19:01:33.860Z,149918.53
2022-11-22T19:04:00.222Z,149918.53
2022-11-22T19:06:26.032Z,149905.91
2022-11-22T19:08:51.904Z,149919.78
2022-11-22T19:11:17.763Z,149936.19
2022-11-22T19:13:44.324Z,149941.19
2022-11-22T19:16:16.958Z,149928.59
2022-11-22T19:18:44.372Z,149914.75
2022-11-22T19:21:18.218Z,149931.09
2022-11-22T19:23:50.978Z,149934.91
2022-11-22T19:26:19.843Z,149918.53
2022-11-22T19:28:49.718Z,149927.31
2022-11-22T19:31:18.149Z,149913.47
2022-11-22T19:33:45.092Z,149927.31
2022-11-22T19:36:17.086Z,149922.31
2022-11-22T19:38:43.686Z,149910.94
2022-11-22T19:41:21.268Z,149929.84
2022-11-22T19:43:48.726Z,149917.28
2022-11-22T19:46:15.037Z,149918.53
2022-11-22T19:48:46.666Z,149953.81
2022-11-22T19:51:14.520Z,149929.84
2022-11-22T19:53:43.730Z,149942.47
2022-11-22T19:56:13.050Z,149952.56
2022-11-22T19:58:39.977Z,149951.31
2022-11-22T20:01:09.287Z,149976.50
2022-11-22T20:03:37.976Z,149948.75
2022-11-22T20:06:05.606Z,149946.22
2022-11-22T20:08:32.068Z,149966.38
2022-11-22T20:11:06.572Z,149956.34
2022-11-22T20:13:37.241Z,149958.84
2022-11-22T20:16:14.320Z,149956.34
2022-11-22T20:18:40.498Z,149956.34
2022-11-22T20:21:08.489Z,149970.22
2022-11-22T20:23:34.993Z,149961.38
2022-11-22T20:26:08.318Z,149931.09
2022-11-22T20:28:34.154Z,149938.69
2022-11-22T20:31:10.166Z,149929.84
2022-11-22T20:33:39.113Z,149971.47
2022-11-22T20:36:08.894Z,149947.47
2022-11-22T20:38:36.191Z,149980.25
2022-11-22T20:41:04.108Z,149965.13
2022-11-22T20:43:30.792Z,149958.84
2022-11-22T20:46:08.655Z,149946.22
2022-11-22T20:48:35.541Z,149946.22
2022-11-22T20:51:03.684Z,149970.22
2022-11-22T20:53:29.525Z,149970.22
2022-11-22T20:55:55.476Z,149977.75
2022-11-22T20:58:23.118Z,149989.09
2022-11-22T21:00:49.087Z,149992.88
2022-11-22T21:03:15.147Z,149999.16
2022-11-22T21:05:41.008Z,149995.41
2022-11-22T21:08:06.787Z,149987.84
2022-11-22T21:10:32.772Z,149989.09
2022-11-22T21:12:58.575Z,150001.69
2022-11-22T21:15:24.700Z,149979.00
2022-11-22T21:18:17.174Z,149982.78
2022-11-22T21:20:36.589Z,149982.78
2022-11-22T21:23:03.278Z,149985.28
2022-11-22T21:25:29.435Z,149985.28
2022-11-22T21:27:55.399Z,149966.38
2022-11-22T21:30:21.162Z,149973.97
2022-11-22T21:32:47.186Z,149971.47
2022-11-22T21:35:13.362Z,149997.91
2022-11-22T21:37:41.292Z,150004.25
2022-11-22T21:40:09.154Z,149991.63
2022-11-22T21:42:37.060Z,149987.84
2022-11-22T21:45:04.433Z,149980.25
2022-11-22T21:47:31.652Z,150000.41
2022-11-22T21:49:58.017Z,149987.84
2022-11-22T21:52:24.457Z,149990.38
2022-11-22T21:54:53.222Z,149976.50
2022-11-22T21:57:18.994Z,149989.09
2022-11-22T21:59:44.857Z,149995.41
2022-11-22T22:02:10.641Z,149971.47
2022-11-22T22:04:36.455Z,149979.00
2022-11-22T22:07:02.269Z,149972.72
2022-11-22T22:09:28.197Z,149984.03
2022-11-22T22:11:54.103Z,149985.28
2022-11-22T22:14:19.944Z,150000.41
2022-11-22T22:16:45.778Z,149984.03
2022-11-22T22:19:11.667Z,149976.50
2022-11-22T22:21:37.477Z,149976.50
2022-11-22T22:24:03.510Z,149989.09
2022-11-22T22:26:31.337Z,150002.94
2022-11-22T22:28:57.156Z,150000.41
2022-11-22T22:31:23.698Z,149996.66
2022-11-22T22:33:54.224Z,149989.09
2022-11-22T22:36:22.854Z,149989.09
2022-11-22T22:38:48.731Z,149989.09
2022-11-22T22:41:15.308Z,149994.13
2022-11-22T22:43:43.715Z,149995.41
2022-11-22T22:46:17.183Z,149985.28
2022-11-22T22:48:43.473Z,149987.84
2022-11-22T22:51:14.785Z,149997.91
2022-11-22T22:53:41.310Z,150000.41
2022-11-22T22:56:07.752Z,149997.91
2022-11-22T22:58:34.306Z,149997.91
2022-11-22T23:01:08.591Z,149997.91
2022-11-22T23:03:35.485Z,150002.94
2022-11-22T23:06:09.532Z,149996.66
2022-11-22T23:08:36.527Z,150001.69
2022-11-22T23:11:04.354Z,150000.41
2022-11-22T23:13:31.066Z,149999.16
2022-11-22T23:16:00.199Z,149990.38
2022-11-22T23:18:27.029Z,149992.88
2022-11-22T23:20:58.052Z,149990.38
2022-11-22T23:23:23.808Z,150000.41
2022-11-22T23:25:49.547Z,150000.41
2022-11-22T23:28:15.298Z,150005.50
2022-11-22T23:30:41.071Z,150001.69
2022-11-22T23:33:06.860Z,149999.16
2022-11-22T23:35:36.353Z,150008.00
2022-11-22T23:38:02.922Z,150025.66
2022-11-22T23:40:30.307Z,150005.50
2022-11-22T23:43:00.223Z,150029.44
2022-11-22T23:45:26.397Z,150010.53
2022-11-22T23:47:52.347Z,150013.03
2022-11-22T23:50:18.701Z,150014.28
2022-11-22T23:52:44.627Z,150009.28
2022-11-22T23:55:10.613Z,150018.06
2022-11-22T23:57:36.392Z,150004.25
